Terminal Aerodrome Forecast
Issued by NWS

Current Version | Previous Version | Graphics & Text | Print | Product List | Glossary On
Versions: 1 2 3 4 5 6 7 8 9 10 11 12 13 14 15 16 17 18 19 20 21
053
FTUS41 KPBZ 021448 AAA
TAFHLG
TAF AMD
KHLG 021448Z 0215/0312 22010KT P6SM SCT016 OVC022
     FM021800 29012KT P6SM BKN035
     FM022300 33005KT P6SM VCSH BKN050=

USA.gov is the U.S. government's official web portal to all federal, state and local government web resources and services.